Airfield :
LOGIN :

Register | Disclaimer

   EN    FR    IT 

 










Legend :    VFR   Marginal VFR   IFR   Intensive IFR   Very Intensive IFR
Visi :
Ceiling :
>= 8 km
>= 3000ft
5 to 8 km
1000 to 3000 ft
1500m to 5 km
500 to 1000 ft
800 to 1500m
200 to 500 ft
< 800m
< 200 ft
Symbols :   Thunderstorms  Fog  Heavy snow  Heavy precipitations  Wind > 20 kt
SIGMETs :     Misc.  Thunderstorms  Icing  Turbulence  Mountain Waves  Volcanic Ashes







- Airport Elevation : 53 ft
- IATA code : LBC


EDHL - Lübeck

CURRENT METAR :
  • 231420Z 25005KT 200V320 1400 TS BKN023CB 18/15 Q1014

EXPIRED METARs :
  • 231350Z 17004KT 130V240 9999 VCSH BKN060CB 23/11 Q1012
  • 231320Z 21005KT 160V250 CAVOK 24/12 Q1013
  • 231250Z 23007KT 180V250 CAVOK 24/12 Q1013
  • 231220Z 21007KT 170V260 CAVOK 24/11 Q1014
  • 231150Z 18005KT 130V240 CAVOK 23/10 Q1014

TAF TAF EDHL
Valid from the 23 at 15:00 until the 23 at 21:00 UTC


231400Z 2315/2321 20005KT CAVOK
TEMPO 2315/2317 28015G30KT SHRA BKN030CB
PROB30
TEMPO 2315/2316 29020G35KT 3000 TSRAGR BKN012CB
BECMG 2315/2316 29010KT
TEMPO 2317/2321 29015G25KT
PROB30
TEMPO 2320/2321 BKN010
No reported NOTAMs for that airfield.
1 SIGMET reported for the Bremen FIR (EDWW) :
 
Squall lined thunderstorms and hail
EDWW SIGMET 1 VALID 231318/231600 EDZH
EDWW BREMEN FIR SQL TSGR FCST WI N5447 E00944 - N5439 E01039 - N5317 E01028 - N5324 E00940 - N5447 E00944 TOP FL300 MOV E NC=



MET'MAP, your aeronautical weather chart ! - Copyright ORBIFLY December 2007 - Disclaimer

ORBIFLY MET'MAP TEAM :

Programming & Development : Alexandra Zaïnal
Concept & Development : Baudouin d'Aumeries
Co-Development & Prog : Marc-Olivier Méhu
Technical & hardware support : Manuel Goepfert

Contact : metmap@orbifly.com




SOURCES & CREDITS :

   NOAA